Time;durP1;ratioP1;P1;durP2;ratioP2;P2;SDS_P1;SDS_P2;PMS_P1;PMS_P2;Temp;Humidity;BMP_temperature;BMP_pressure;BME280_temperature;BME280_humidity;BME280_pressure;Samples;Min_cycle;Max_cycle;Signal;HPM_P1;HPM_P2
2022/11/22 00:00:40;;;;;;;5.70;2.50;;;;;;;5.46;97.08;99051.81;5036348;28;20056;-78
2022/11/22 00:03:06;;;;;;;7.65;2.85;;;;;;;5.48;96.80;99060.31;5033600;28;20484;-78
2022/11/22 00:05:31;;;;;;;4.50;2.17;;;;;;;5.50;97.13;99057.72;5034390;28;20033;-78
2022/11/22 00:07:56;;;;;;;5.22;2.55;;;;;;;5.50;96.85;99053.38;5030483;28;20522;-78
2022/11/22 00:10:21;;;;;;;6.07;2.75;;;;;;;5.52;96.96;99046.44;5034235;28;20083;-78
2022/11/22 00:12:47;;;;;;;6.53;2.80;;;;;;;5.54;97.01;99056.72;5032302;28;20089;-78
2022/11/22 00:15:12;;;;;;;9.63;3.00;;;;;;;5.53;97.18;99055.88;5028583;28;20050;-78
2022/11/22 00:17:38;;;;;;;7.50;2.88;;;;;;;5.54;97.23;99056.72;5030263;28;20384;-78
2022/11/22 00:20:05;;;;;;;6.88;3.05;;;;;;;5.55;97.04;99055.84;5033581;28;20040;-78
2022/11/22 00:22:32;;;;;;;6.15;2.80;;;;;;;5.56;97.18;99062.66;5032320;28;20069;-78
2022/11/22 00:24:57;;;;;;;5.68;2.92;;;;;;;5.57;97.00;99059.19;5023222;28;20087;-78
2022/11/22 00:27:22;;;;;;;4.97;2.60;;;;;;;5.58;97.56;99053.97;5032988;28;20033;-78
2022/11/22 00:29:48;;;;;;;6.30;3.00;;;;;;;5.58;97.46;99058.28;5029653;28;20029;-78
2022/11/22 00:32:13;;;;;;;6.95;3.20;;;;;;;5.58;97.35;99053.13;5027407;28;20480;-78
2022/11/22 00:34:39;;;;;;;6.55;3.30;;;;;;;5.59;97.28;99053.09;5029961;28;20381;-78
2022/11/22 00:37:04;;;;;;;6.15;2.80;;;;;;;5.59;97.61;99053.09;5028140;28;20029;-78
2022/11/22 00:39:29;;;;;;;7.22;3.00;;;;;;;5.60;97.29;99053.91;5030781;28;20032;-78
2022/11/22 00:41:54;;;;;;;6.10;3.00;;;;;;;5.60;97.14;99059.94;5032862;28;20030;-78
2022/11/22 00:44:20;;;;;;;6.80;3.00;;;;;;;5.60;97.14;99062.50;5027945;28;20392;-78
2022/11/22 00:46:45;;;;;;;5.60;2.80;;;;;;;5.61;97.61;99058.19;5032463;28;20033;-78
2022/11/22 00:49:10;;;;;;;6.15;2.90;;;;;;;5.60;97.05;99049.63;5030007;28;20373;-78
2022/11/22 00:51:35;;;;;;;6.97;2.90;;;;;;;5.59;97.45;99057.38;5021354;28;20041;-78
2022/11/22 00:54:01;;;;;;;4.45;2.63;;;;;;;5.59;97.55;99054.81;5029845;28;20516;-78
2022/11/22 00:56:26;;;;;;;5.78;2.75;;;;;;;5.59;97.62;99063.41;5031029;28;20038;-78
2022/11/22 00:58:51;;;;;;;5.47;2.60;;;;;;;5.60;97.46;99053.91;5030976;28;20025;-78
2022/11/22 01:01:16;;;;;;;6.10;2.50;;;;;;;5.60;97.64;99061.66;5032939;28;20091;-78
2022/11/22 01:03:42;;;;;;;5.07;2.47;;;;;;;5.61;97.35;99055.59;5026661;28;20036;-78
2022/11/22 01:06:07;;;;;;;4.93;2.70;;;;;;;5.62;97.44;99049.56;5022214;28;20017;-78
2022/11/22 01:08:32;;;;;;;6.13;2.72;;;;;;;5.60;97.28;99053.91;5020879;28;20067;-78
2022/11/22 01:10:59;;;;;;;6.63;2.22;;;;;;;5.58;97.24;99051.41;5024096;28;20029;-78
2022/11/22 01:13:27;;;;;;;4.47;2.30;;;;;;;5.56;97.32;99045.44;5030479;28;20065;-78
2022/11/22 01:15:57;;;;;;;5.00;2.22;;;;;;;5.53;97.25;99057.63;5032627;28;20099;-78
2022/11/22 01:18:22;;;;;;;4.68;2.25;;;;;;;5.50;97.07;99053.38;5031731;28;20044;-78
2022/11/22 01:20:47;;;;;;;5.28;2.50;;;;;;;5.47;97.09;99056.91;5023490;28;20033;-78
2022/11/22 01:23:12;;;;;;;5.40;2.45;;;;;;;5.45;97.06;99056.13;5029951;28;20465;-78
2022/11/22 01:25:41;;;;;;;4.10;2.03;;;;;;;5.43;97.06;99057.09;5032672;28;20045;-78
2022/11/22 01:28:07;;;;;;;4.93;2.17;;;;;;;5.40;97.36;99055.44;5030612;28;20052;-78
2022/11/22 01:30:32;;;;;;;5.50;2.08;;;;;;;5.39;97.03;99052.91;5030964;28;20088;-78
2022/11/22 01:32:57;;;;;;;4.85;2.05;;;;;;;5.36;97.10;99056.44;5030304;28;20044;-78
2022/11/22 01:35:22;;;;;;;4.65;2.28;;;;;;;5.34;97.38;99057.38;5029386;28;20082;-78
2022/11/22 01:37:48;;;;;;;5.43;2.20;;;;;;;5.31;97.39;99064.31;5028987;28;20037;-78
2022/11/22 01:40:13;;;;;;;5.55;2.35;;;;;;;5.29;97.19;99060.97;5029352;28;20048;-78
2022/11/22 01:42:44;;;;;;;7.93;2.67;;;;;;;5.27;97.18;99064.47;5031765;28;20037;-78
2022/11/22 01:45:28;;;;;;;5.13;2.13;;;;;;;5.22;97.33;99069.78;5031082;28;20311;-78
2022/11/22 01:48:04;;;;;;;4.55;2.10;;;;;;;5.19;97.22;99069.88;5017243;28;20029;-78
2022/11/22 01:50:34;;;;;;;7.60;2.60;;;;;;;5.18;97.08;99075.91;5014613;28;20052;-78
2022/11/22 01:53:05;;;;;;;4.40;1.95;;;;;;;5.16;97.25;99069.97;5030341;28;20071;-78
2022/11/22 01:55:31;;;;;;;5.43;1.95;;;;;;;5.14;96.89;99076.91;5029269;28;20033;-78
2022/11/22 01:57:57;;;;;;;4.63;1.90;;;;;;;5.12;97.45;99082.13;5027486;28;20029;-78
2022/11/22 02:00:22;;;;;;;5.47;1.88;;;;;;;5.11;97.61;99087.34;5029220;28;20044;-78
2022/11/22 02:02:56;;;;;;;5.75;1.98;;;;;;;5.10;97.55;99090.81;5030602;28;20461;-78
2022/11/22 02:05:27;;;;;;;6.78;2.08;;;;;;;5.08;97.57;99087.44;5029676;28;20026;-78
2022/11/22 02:08:04;;;;;;;6.30;1.75;;;;;;;5.07;97.07;99090.91;5029274;28;20033;-78
2022/11/22 02:10:35;;;;;;;4.07;1.80;;;;;;;5.05;97.38;99087.53;5028909;28;20075;-78
2022/11/22 02:13:01;;;;;;;6.90;2.00;;;;;;;5.03;97.45;99084.16;5028638;28;20054;-78
2022/11/22 02:15:27;;;;;;;5.70;1.80;;;;;;;5.00;97.22;99091.06;5029786;28;20193;-78
2022/11/22 02:17:52;;;;;;;6.25;1.80;;;;;;;4.99;97.24;99089.38;5024297;28;20028;-78
2022/11/22 02:20:18;;;;;;;6.15;1.90;;;;;;;4.98;97.41;99092.84;5018005;28;20029;-78
2022/11/22 02:22:54;;;;;;;6.20;1.52;;;;;;;4.97;97.49;99096.31;5018670;28;20025;-78
2022/11/22 02:25:25;;;;;;;5.90;1.70;;;;;;;4.96;97.27;99094.63;5021437;28;20030;-78
2022/11/22 02:27:51;;;;;;;5.35;1.50;;;;;;;4.97;97.20;99086.00;5030611;28;20477;-78
2022/11/22 02:30:17;;;;;;;4.03;1.40;;;;;;;4.96;96.97;99094.63;5022431;28;20030;-78
2022/11/22 02:32:43;;;;;;;6.03;1.50;;;;;;;4.94;97.17;99098.16;5023845;28;20024;-78
2022/11/22 02:35:14;;;;;;;4.43;1.70;;;;;;;4.94;97.31;99104.16;5032933;28;20475;-78
2022/11/22 02:37:39;;;;;;;5.93;1.45;;;;;;;4.93;97.28;99099.91;5027803;28;20040;-78
2022/11/22 02:40:12;;;;;;;5.60;1.80;;;;;;;4.92;97.37;99098.22;5030204;28;20380;-78
2022/11/22 02:42:37;;;;;;;7.43;1.60;;;;;;;4.92;96.80;99102.50;5025356;28;20033;-78
2022/11/22 02:45:03;;;;;;;6.50;1.50;;;;;;;4.92;97.19;99102.50;5016083;28;20017;-78
2022/11/22 02:47:28;;;;;;;5.32;1.60;;;;;;;4.91;97.23;99112.00;5020745;28;20053;-78
2022/11/22 02:49:53;;;;;;;7.90;1.60;;;;;;;4.90;97.26;99110.31;5017527;28;20492;-78
2022/11/22 02:52:19;;;;;;;7.63;1.63;;;;;;;4.91;97.26;99116.28;5026824;28;20021;-78
2022/11/22 02:54:44;;;;;;;8.75;1.70;;;;;;;4.90;96.71;99114.59;5028546;28;20029;-78
2022/11/22 02:57:10;;;;;;;8.27;1.70;;;;;;;4.88;96.55;99119.81;5030836;28;20041;-78
2022/11/22 02:59:35;;;;;;;6.35;1.33;;;;;;;4.87;96.65;99120.69;5024290;28;20128;-78
2022/11/22 03:02:00;;;;;;;5.78;1.40;;;;;;;4.85;96.74;99127.63;5029245;28;20477;-78
2022/11/22 03:04:26;;;;;;;9.35;1.38;;;;;;;4.83;96.46;99124.25;5026331;28;20044;-78
2022/11/22 03:06:56;;;;;;;7.20;1.45;;;;;;;4.81;96.22;99124.31;5020985;28;20449;-78
2022/11/22 03:09:25;;;;;;;7.03;1.40;;;;;;;4.80;96.55;99125.19;5018680;28;20053;-78
2022/11/22 03:11:52;;;;;;;6.60;1.40;;;;;;;4.78;96.20;99128.72;5035331;28;20025;-78
2022/11/22 03:14:18;;;;;;;7.60;1.42;;;;;;;4.74;96.16;99135.66;5034279;28;20168;-78
2022/11/22 03:16:45;;;;;;;5.22;1.48;;;;;;;4.74;95.99;99127.09;5032586;28;20032;-78
2022/11/22 03:19:11;;;;;;;5.43;1.42;;;;;;;4.71;96.27;99131.47;5034942;28;20029;-78
2022/11/22 03:21:37;;;;;;;7.40;1.80;;;;;;;4.69;96.25;99133.22;5034716;28;20476;-78
2022/11/22 03:24:03;;;;;;;5.07;1.45;;;;;;;4.68;96.00;99136.69;5037349;28;20106;-78
2022/11/22 03:26:28;;;;;;;7.30;1.55;;;;;;;4.66;95.91;99135.88;5033942;28;20403;-78
2022/11/22 03:28:53;;;;;;;5.10;1.52;;;;;;;4.65;95.90;99141.09;5024951;28;20553;-78
2022/11/22 03:31:19;;;;;;;6.05;1.50;;;;;;;4.63;95.49;99146.28;5032187;28;20034;-78
2022/11/22 03:33:44;;;;;;;4.60;1.35;;;;;;;4.60;95.76;99143.81;5031501;28;20028;-78
2022/11/22 03:36:09;;;;;;;6.38;1.40;;;;;;;4.56;95.50;99143.03;5034959;28;20400;-78
2022/11/22 03:38:35;;;;;;;7.88;1.38;;;;;;;4.56;95.54;99142.22;5031057;28;20021;-78
2022/11/22 03:41:00;;;;;;;7.90;1.40;;;;;;;4.53;95.67;99148.28;5036437;28;20026;-78
2022/11/22 03:43:26;;;;;;;5.90;1.40;;;;;;;4.51;95.22;99144.91;5032045;28;20030;-78
2022/11/22 03:45:51;;;;;;;10.15;1.42;;;;;;;4.50;95.25;99147.53;5031824;28;20376;-78
2022/11/22 03:48:16;;;;;;;11.13;1.83;;;;;;;4.47;95.25;99147.59;5031457;28;20377;-78
2022/11/22 03:50:42;;;;;;;5.37;1.40;;;;;;;4.43;95.04;99146.84;5025473;28;20074;-78
2022/11/22 03:53:07;;;;;;;6.53;1.27;;;;;;;4.42;94.91;99144.34;5024130;28;20107;-78
2022/11/22 03:55:33;;;;;;;5.97;1.80;;;;;;;4.38;94.79;99140.97;5030829;28;20017;-78
2022/11/22 03:57:58;;;;;;;8.60;1.48;;;;;;;4.36;94.91;99148.75;5033724;28;20038;-78
2022/11/22 04:00:23;;;;;;;7.00;1.20;;;;;;;4.34;94.63;99150.53;5023675;28;20038;-78
2022/11/22 04:02:49;;;;;;;7.28;1.50;;;;;;;4.31;94.53;99153.19;5026267;28;20461;-78
2022/11/22 04:05:14;;;;;;;4.80;1.30;;;;;;;4.30;94.55;99156.63;5025607;28;20033;-78
2022/11/22 04:07:39;;;;;;;4.63;1.13;;;;;;;4.27;94.61;99151.56;5027039;28;20026;-77
2022/11/22 04:10:05;;;;;;;6.40;1.37;;;;;;;4.22;94.79;99156.00;5031290;28;20100;-78
2022/11/22 04:12:30;;;;;;;7.60;1.30;;;;;;;4.20;95.07;99160.34;5024974;28;20432;-78
2022/11/22 04:15:05;;;;;;;3.85;1.30;;;;;;;4.19;94.43;99153.53;5029845;28;20029;-78
2022/11/22 04:17:40;;;;;;;10.50;1.43;;;;;;;4.15;94.40;99160.47;5030557;28;20044;-78
2022/11/22 04:22:57;;;;;;;6.50;1.20;;;;;;;4.12;94.67;99162.28;5018392;28;20189;-78
2022/11/22 04:25:27;;;;;;;3.17;0.98;;;;;;;4.09;94.45;99164.06;5029808;28;20026;-78
2022/11/22 04:27:52;;;;;;;8.90;1.50;;;;;;;4.07;94.25;99159.81;5026490;28;20057;-78
2022/11/22 04:30:18;;;;;;;6.20;1.47;;;;;;;4.05;94.13;99162.47;5032543;28;20528;-78
2022/11/22 04:32:46;;;;;;;4.93;1.10;;;;;;;4.04;94.18;99165.06;5033044;28;20032;-78
2022/11/22 04:35:17;;;;;;;6.68;1.38;;;;;;;4.00;94.02;99174.59;5024952;28;20034;-77
2022/11/22 04:37:49;;;;;;;9.77;1.38;;;;;;;3.98;94.46;99178.09;5032825;28;20025;-78
2022/11/22 04:40:14;;;;;;;4.43;1.30;;;;;;;3.96;94.26;99188.41;5033385;28;20441;-78
2022/11/22 04:45:24;;;;;;;2.73;1.30;;;;;;;3.93;94.35;99183.34;5027763;28;20546;-78
2022/11/22 04:47:58;;;;;;;6.30;1.13;;;;;;;3.90;94.47;99184.25;5032803;28;20057;-78
2022/11/22 04:53:08;;;;;;;3.73;1.10;;;;;;;3.85;94.27;99180.94;5024308;28;20102;-77
2022/11/22 04:55:34;;;;;;;4.70;1.00;;;;;;;3.84;93.96;99186.16;5033160;28;20392;-78
2022/11/22 04:57:59;;;;;;;6.82;1.20;;;;;;;3.82;93.99;99195.63;5032005;28;20087;-77
2022/11/22 05:00:26;;;;;;;6.83;1.27;;;;;;;3.82;94.26;99190.47;5032164;28;20439;-78
2022/11/22 05:02:51;;;;;;;5.60;1.20;;;;;;;3.78;93.92;99190.56;5032945;28;20032;-78
2022/11/22 05:05:17;;;;;;;7.50;1.23;;;;;;;3.79;93.94;99191.41;5030986;28;20362;-78
2022/11/22 05:07:42;;;;;;;5.57;1.20;;;;;;;3.74;94.13;99188.97;5030227;28;20036;-78
2022/11/22 05:10:08;;;;;;;5.87;1.10;;;;;;;3.71;94.28;99183.88;5032844;28;20029;-78
2022/11/22 05:12:33;;;;;;;3.33;1.10;;;;;;;3.68;93.90;99194.25;5031154;28;20032;-78
2022/11/22 05:14:58;;;;;;;3.13;1.07;;;;;;;3.68;94.31;99195.97;5024813;28;20038;-77
2022/11/22 05:17:24;;;;;;;5.17;1.00;;;;;;;3.65;94.08;99196.88;5026831;28;20039;-78
2022/11/22 05:19:49;;;;;;;4.57;1.20;;;;;;;3.64;94.12;99197.75;5033195;28;20033;-78
2022/11/22 05:22:14;;;;;;;4.87;1.03;;;;;;;3.61;94.14;99200.41;5031363;28;20033;-78
2022/11/22 05:24:40;;;;;;;7.07;1.20;;;;;;;3.59;94.00;99210.75;5028676;28;20189;-78
2022/11/22 05:27:05;;;;;;;5.70;1.50;;;;;;;3.58;93.77;99211.63;5031198;28;20059;-78
2022/11/22 05:29:30;;;;;;;5.00;1.10;;;;;;;3.59;94.06;99199.59;5031858;28;20436;-78
2022/11/22 05:31:55;;;;;;;5.70;1.17;;;;;;;3.58;93.93;99200.50;5025706;28;20029;-78
2022/11/22 05:34:21;;;;;;;6.63;1.27;;;;;;;3.56;93.76;99200.53;5031822;28;20029;-78
2022/11/22 05:36:46;;;;;;;3.80;1.20;;;;;;;3.53;93.68;99194.63;5028240;28;20412;-78
2022/11/22 05:39:11;;;;;;;5.57;1.20;;;;;;;3.52;93.67;99187.78;5026471;28;20060;-78
2022/11/22 05:41:36;;;;;;;5.90;1.10;;;;;;;3.51;93.79;99192.06;5033108;28;20460;-77
2022/11/22 05:44:02;;;;;;;4.93;1.00;;;;;;;3.49;93.68;99193.84;5033611;28;20060;-77
2022/11/22 05:46:29;;;;;;;5.80;1.00;;;;;;;3.47;93.66;99183.56;5033579;28;20420;-77
2022/11/22 05:48:56;;;;;;;5.17;1.00;;;;;;;3.45;93.47;99190.47;5027465;28;20022;-77
2022/11/22 05:51:24;;;;;;;5.53;0.90;;;;;;;3.44;93.72;99191.34;5024429;28;20030;-77
2022/11/22 05:53:49;;;;;;;7.37;1.10;;;;;;;3.42;93.50;99193.13;5024879;28;20476;-77
2022/11/22 05:56:17;;;;;;;5.50;0.97;;;;;;;3.41;93.80;99190.59;5040656;28;20057;-77
2022/11/22 05:58:44;;;;;;;6.27;1.00;;;;;;;3.39;93.63;99187.22;5053204;28;20082;-77
2022/11/22 06:01:11;;;;;;;6.77;1.00;;;;;;;3.37;93.71;99192.41;5023599;28;20056;-78
2022/11/22 06:03:37;;;;;;;5.13;1.33;;;;;;;3.37;93.81;99192.41;5026300;28;20087;-78
2022/11/22 06:06:04;;;;;;;4.17;0.90;;;;;;;3.35;93.52;99191.59;5025121;28;20033;-78
2022/11/22 06:08:31;;;;;;;5.07;0.90;;;;;;;3.33;93.73;99208.75;5021764;28;20040;-77
2022/11/22 06:11:06;;;;;;;4.00;1.13;;;;;;;3.34;93.54;99210.47;5023015;28;20047;-78
2022/11/22 06:13:34;;;;;;;5.17;1.20;;;;;;;3.32;93.75;99207.06;5030996;28;20107;-77
2022/11/22 06:15:59;;;;;;;3.97;1.00;;;;;;;3.31;93.33;99202.81;5030766;28;20427;-78
2022/11/22 06:18:24;;;;;;;6.27;1.20;;;;;;;3.30;93.66;99201.97;5031588;28;20136;-78
2022/11/22 06:20:49;;;;;;;4.00;1.10;;;;;;;3.28;93.82;99190.88;5026850;28;20034;-77
2022/11/22 06:23:15;;;;;;;4.77;1.03;;;;;;;3.28;93.56;99188.31;5029296;28;20405;-77
2022/11/22 06:25:40;;;;;;;6.20;1.03;;;;;;;3.29;93.31;99191.72;5027910;28;20036;-78
2022/11/22 06:28:05;;;;;;;4.60;1.13;;;;;;;3.27;93.35;99196.03;5028297;28;20087;-77
2022/11/22 06:30:30;;;;;;;3.60;0.90;;;;;;;3.26;93.17;99207.19;5029300;28;20031;-78
2022/11/22 06:32:56;;;;;;;5.33;1.20;;;;;;;3.24;93.15;99204.66;5027144;28;20026;-77
2022/11/22 06:35:21;;;;;;;3.53;1.10;;;;;;;3.23;93.04;99202.16;5026575;28;20064;-78
2022/11/22 06:37:47;;;;;;;3.43;1.00;;;;;;;3.19;93.52;99202.22;5026721;28;20053;-77
2022/11/22 06:40:14;;;;;;;6.10;1.20;;;;;;;3.17;93.12;99193.69;5029575;28;20022;-77
2022/11/22 06:42:39;;;;;;;3.40;1.10;;;;;;;3.18;93.45;99195.38;5023250;28;20022;-77
2022/11/22 06:45:05;;;;;;;8.10;1.43;;;;;;;3.17;93.68;99201.41;5028246;28;20040;-77
2022/11/22 06:47:31;;;;;;;6.17;1.27;;;;;;;3.15;93.49;99198.00;5029229;28;20421;-77
2022/11/22 06:49:56;;;;;;;5.27;1.33;;;;;;;3.15;92.57;99198.00;5027321;28;20059;-77
2022/11/22 06:52:21;;;;;;;4.90;1.10;;;;;;;3.16;93.77;99201.44;5029661;28;20100;-78
2022/11/22 06:54:46;;;;;;;5.70;1.10;;;;;;;3.15;93.56;99210.84;5026951;28;20056;-77
2022/11/22 06:57:13;;;;;;;4.30;1.07;;;;;;;3.14;93.31;99214.31;5024524;28;20121;-78
2022/11/22 06:59:38;;;;;;;6.57;1.20;;;;;;;3.13;93.29;99222.88;5029836;28;20100;-78
2022/11/22 07:02:04;;;;;;;4.50;0.97;;;;;;;3.13;93.08;99225.47;5023856;28;22565;-77
2022/11/22 07:04:29;;;;;;;4.03;1.10;;;;;;;3.13;93.25;99222.06;5023996;28;20025;-78
2022/11/22 07:06:54;;;;;;;3.90;1.03;;;;;;;3.13;93.07;99222.88;5027645;28;20029;-77
2022/11/22 07:09:19;;;;;;;6.73;1.27;;;;;;;3.12;93.06;99231.47;5024842;28;20472;-78
2022/11/22 07:11:44;;;;;;;3.90;1.00;;;;;;;3.16;93.31;99242.56;5030356;28;20025;-78
2022/11/22 07:14:10;;;;;;;7.10;1.40;;;;;;;3.17;93.35;99242.50;5026589;28;20052;-78
2022/11/22 07:16:37;;;;;;;4.43;1.10;;;;;;;3.22;93.35;99249.28;5029168;28;20480;-78
2022/11/22 07:19:02;;;;;;;7.10;1.67;;;;;;;3.26;93.54;99243.19;5026404;28;20065;-77
2022/11/22 07:21:28;;;;;;;5.40;1.33;;;;;;;3.30;93.31;99249.94;5018901;28;20057;-77
2022/11/22 07:23:54;;;;;;;4.47;1.07;;;;;;;3.33;93.42;99252.47;5026907;28;20028;-77
2022/11/22 07:26:21;;;;;;;4.13;1.27;;;;;;;3.36;93.47;99249.81;5024700;28;20032;-77
2022/11/22 07:28:47;;;;;;;6.93;1.30;;;;;;;3.39;93.63;99244.63;5018324;28;20029;-77
2022/11/22 07:31:14;;;;;;;5.63;1.33;;;;;;;3.43;93.56;99248.78;5022264;28;20033;-78
2022/11/22 07:33:40;;;;;;;6.47;1.50;;;;;;;3.44;93.35;99247.09;5023245;28;20476;-77
2022/11/22 07:36:07;;;;;;;5.03;1.50;;;;;;;3.47;93.25;99253.00;5022522;28;20040;-78
2022/11/22 07:38:33;;;;;;;4.50;1.30;;;;;;;3.49;93.49;99252.97;5024364;28;20100;-77
2022/11/22 07:40:59;;;;;;;6.67;1.50;;;;;;;3.53;93.42;99248.59;5021930;28;20097;-78
2022/11/22 07:43:24;;;;;;;7.67;1.47;;;;;;;3.55;93.44;99255.41;5022155;28;20573;-77
2022/11/22 07:45:50;;;;;;;6.20;1.33;;;;;;;3.59;93.43;99261.31;5025417;28;20026;-77
2022/11/22 07:48:15;;;;;;;8.50;1.43;;;;;;;3.61;93.12;99262.13;5020267;28;20034;-78
2022/11/22 07:50:41;;;;;;;7.33;1.50;;;;;;;3.63;92.94;99257.78;5030464;28;20037;-78
2022/11/22 07:53:07;;;;;;;5.47;1.20;;;;;;;3.66;92.83;99260.28;5030617;28;20057;-78
2022/11/22 07:55:33;;;;;;;5.13;1.33;;;;;;;3.71;92.95;99260.19;5028003;28;20037;-77
2022/11/22 07:57:59;;;;;;;7.20;1.47;;;;;;;3.73;93.08;99259.28;5033241;28;20096;-77
2022/11/22 08:00:25;;;;;;;6.30;1.50;;;;;;;3.76;92.85;99263.50;5029376;28;20021;-77
2022/11/22 08:02:50;;;;;;;5.30;1.30;;;;;;;3.79;93.38;99256.56;5020203;28;20128;-78
2022/11/22 08:05:16;;;;;;;7.30;1.40;;;;;;;3.84;92.73;99265.91;5029993;28;20137;-80
2022/11/22 08:07:49;;;;;;;3.77;1.10;;;;;;;3.87;92.27;99263.25;5038162;28;20456;-78
2022/11/22 08:10:16;;;;;;;3.70;1.20;;;;;;;3.91;92.43;99257.16;5038117;28;20029;-79
2022/11/22 08:12:41;;;;;;;6.80;1.40;;;;;;;3.95;92.07;99263.91;5038586;28;20526;-78
2022/11/22 08:15:08;;;;;;;3.40;1.10;;;;;;;3.98;92.25;99257.84;5036097;28;20034;-77
2022/11/22 08:17:33;;;;;;;5.75;1.10;;;;;;;3.99;92.21;99260.38;5037431;28;20567;-77
2022/11/22 08:19:58;;;;;;;4.20;1.38;;;;;;;3.99;92.03;99250.09;5039714;28;20036;-77
2022/11/22 08:22:24;;;;;;;4.53;1.30;;;;;;;4.02;91.83;99251.72;5040026;28;20053;-77
2022/11/22 08:24:49;;;;;;;5.05;1.23;;;;;;;4.04;91.79;99258.56;5034626;28;20083;-78
2022/11/22 08:27:14;;;;;;;5.00;1.07;;;;;;;4.08;91.68;99265.31;5038114;28;20117;-78
2022/11/22 08:29:40;;;;;;;5.67;1.13;;;;;;;4.11;91.96;99256.66;5033636;28;20022;-78
2022/11/22 08:32:05;;;;;;;5.33;1.60;;;;;;;4.17;91.58;99263.38;5036422;28;20060;-78
2022/11/22 08:34:30;;;;;;;7.40;1.40;;;;;;;4.20;91.74;99263.31;5037065;28;20033;-78
2022/11/22 08:36:55;;;;;;;2.88;1.30;;;;;;;4.23;91.84;99258.94;5035514;28;20119;-78
2022/11/22 08:39:21;;;;;;;5.73;1.37;;;;;;;4.27;91.67;99259.69;5034956;28;20037;-77
2022/11/22 08:41:46;;;;;;;4.53;1.10;;;;;;;4.29;91.63;99259.66;5035304;28;20022;-78
2022/11/22 08:44:12;;;;;;;6.80;1.33;;;;;;;4.32;91.26;99265.56;5037983;28;20250;-79
2022/11/22 08:46:37;;;;;;;5.55;1.13;;;;;;;4.34;90.89;99274.09;5031446;28;20021;-77
2022/11/22 08:49:05;;;;;;;6.67;1.50;;;;;;;4.38;91.12;99273.16;5035969;28;20029;-77
2022/11/22 08:51:31;;;;;;;4.63;1.10;;;;;;;4.39;91.10;99279.13;5029931;28;20074;-77
2022/11/22 08:53:56;;;;;;;2.42;1.10;;;;;;;4.43;90.87;99279.91;5034058;28;20077;-77
2022/11/22 08:56:21;;;;;;;4.83;1.10;;;;;;;4.44;91.24;99281.59;5035630;28;20033;-78
2022/11/22 08:58:47;;;;;;;6.50;1.42;;;;;;;4.46;90.97;99275.53;5037016;28;20031;-77
2022/11/22 09:01:15;;;;;;;3.58;1.20;;;;;;;4.49;90.87;99274.59;5035139;28;20099;-77
2022/11/22 09:03:41;;;;;;;3.60;1.20;;;;;;;4.51;90.86;99278.84;5033995;28;20058;-77
2022/11/22 09:06:09;;;;;;;4.93;1.27;;;;;;;4.54;90.59;99278.72;5035616;28;20087;-78
2022/11/22 09:08:36;;;;;;;3.28;1.13;;;;;;;4.56;90.68;99279.53;5033491;28;20492;-78
2022/11/22 09:11:03;;;;;;;7.33;1.10;;;;;;;4.63;91.08;99277.63;5037020;28;20052;-77
2022/11/22 09:13:29;;;;;;;4.70;1.17;;;;;;;4.68;90.73;99287.84;5036800;28;20163;-78
2022/11/22 09:16:00;;;;;;;3.95;1.20;;;;;;;4.73;90.30;99283.41;5035847;28;20483;-77
2022/11/22 09:18:25;;;;;;;4.53;1.40;;;;;;;4.77;90.47;99285.00;5041888;28;20082;-78
2022/11/22 09:21:00;;;;;;;4.68;1.40;;;;;;;4.83;90.77;99290.00;5029982;28;20028;-77
2022/11/22 09:23:25;;;;;;;3.03;1.20;;;;;;;4.90;90.59;99295.84;5035689;28;20219;-77
2022/11/22 09:26:05;;;;;;;4.57;1.38;;;;;;;4.99;90.72;99297.31;5039001;28;20033;-77
2022/11/22 09:28:31;;;;;;;4.97;1.40;;;;;;;4.99;90.34;99300.72;5043238;28;20083;-78
2022/11/22 09:31:09;;;;;;;7.20;1.60;;;;;;;4.98;89.40;99305.94;5035357;28;20037;-78
2022/11/22 09:33:36;;;;;;;5.63;1.70;;;;;;;4.96;89.78;99293.06;5031912;28;20060;-78
2022/11/22 09:36:10;;;;;;;5.15;1.48;;;;;;;4.95;89.48;99293.13;5037036;28;20512;-78
2022/11/22 09:38:37;;;;;;;5.63;1.30;;;;;;;4.96;89.88;99287.91;5034156;28;20044;-78
2022/11/22 09:41:28;;;;;;;6.03;1.20;;;;;;;5.05;90.36;99293.72;5035836;28;20059;-78
2022/11/22 09:44:09;;;;;;;6.05;1.30;;;;;;;5.10;90.34;99291.88;5032230;28;20035;-78
2022/11/22 09:46:53;;;;;;;5.82;1.20;;;;;;;5.18;90.47;99284.75;5038711;28;20033;-77
2022/11/22 09:49:51;;;;;;;3.67;1.15;;;;;;;5.25;90.35;99278.53;5036321;28;20029;-78
2022/11/22 09:52:22;;;;;;;5.40;1.20;;;;;;;5.31;89.73;99283.50;5038855;28;20400;-77
2022/11/22 09:54:56;;;;;;;2.88;1.00;;;;;;;5.33;89.59;99283.47;5035248;28;20039;-77
2022/11/22 09:57:26;;;;;;;4.03;1.13;;;;;;;5.34;89.61;99284.28;5038504;28;21487;-77
2022/11/22 10:00:17;;;;;;;3.25;1.00;;;;;;;5.33;89.44;99278.31;5038846;28;20037;-77
2022/11/22 10:03:07;;;;;;;4.30;1.10;;;;;;;5.35;89.16;99285.97;5038222;28;20025;-77
2022/11/22 10:05:47;;;;;;;6.20;1.30;;;;;;;5.38;88.83;99291.06;5011134;28;20064;-77
2022/11/22 10:08:24;;;;;;;4.95;1.20;;;;;;;5.42;88.85;99290.91;5029944;28;20450;-77
2022/11/22 10:10:55;;;;;;;3.22;1.10;;;;;;;5.46;89.25;99289.09;5034937;28;20468;-78
2022/11/22 10:13:32;;;;;;;3.33;1.08;;;;;;;5.49;88.93;99289.00;5036494;28;20083;-78
2022/11/22 10:16:13;;;;;;;3.38;1.40;;;;;;;5.49;88.56;99291.56;5037763;28;20033;-77
2022/11/22 10:18:50;;;;;;;4.63;1.40;;;;;;;5.48;88.66;99297.63;5021551;28;21550;-78
2022/11/22 10:21:15;;;;;;;3.55;1.20;;;;;;;5.47;88.13;99296.78;5040127;28;20029;-78
2022/11/22 10:23:41;;;;;;;3.80;1.00;;;;;;;5.46;88.40;99296.84;5041496;28;20036;-77
2022/11/22 10:26:20;;;;;;;3.75;0.93;;;;;;;5.46;88.08;99289.09;5041220;28;20079;-78
2022/11/22 10:29:07;;;;;;;3.85;1.00;;;;;;;5.43;88.15;99289.19;5032952;28;20040;-78
2022/11/22 10:31:42;;;;;;;2.83;1.15;;;;;;;5.41;87.98;99288.38;5036453;28;20026;-78
2022/11/22 10:34:49;;;;;;;3.38;0.98;;;;;;;5.41;88.10;99284.06;5036814;28;20059;-78
2022/11/22 10:37:36;;;;;;;3.70;1.27;;;;;;;5.41;88.21;99280.66;5015662;28;20554;-77
2022/11/22 10:40:11;;;;;;;2.35;0.90;;;;;;;5.42;88.13;99279.75;5035140;28;20041;-79
2022/11/22 10:42:55;;;;;;;3.33;1.00;;;;;;;5.44;87.89;99275.41;5037266;28;20058;-78
2022/11/22 10:45:32;;;;;;;2.78;1.10;;;;;;;5.47;88.04;99278.72;5040304;28;20028;-78
2022/11/22 10:48:05;;;;;;;2.97;1.10;;;;;;;5.52;88.59;99278.59;5035639;28;20037;-78
2022/11/22 10:50:48;;;;;;;2.25;0.90;;;;;;;5.57;88.07;99271.56;5038422;28;20033;-78
2022/11/22 10:53:29;;;;;;;1.55;0.90;;;;;;;5.60;87.74;99271.47;5037188;28;20107;-78
2022/11/22 10:56:16;;;;;;;1.83;0.90;;;;;;;5.64;87.86;99273.97;5038291;28;20041;-78
2022/11/22 10:59:00;;;;;;;3.47;1.00;;;;;;;5.68;87.03;99265.22;5032662;28;20025;-78
2022/11/22 11:01:45;;;;;;;1.75;1.00;;;;;;;5.72;86.84;99265.06;5035278;28;20033;-78
2022/11/22 11:04:12;;;;;;;1.77;0.75;;;;;;;5.76;87.33;99260.69;5033372;28;20123;-78
2022/11/22 11:06:51;;;;;;;2.78;0.80;;;;;;;5.83;87.07;99259.56;5034164;28;20034;-78
2022/11/22 11:09:21;;;;;;;1.60;0.80;;;;;;;5.90;86.36;99253.34;5032903;28;20052;-78
2022/11/22 11:11:48;;;;;;;4.90;0.80;;;;;;;5.94;86.41;99243.75;5037719;28;20033;-77
2022/11/22 11:14:29;;;;;;;2.55;0.82;;;;;;;5.98;85.70;99242.75;5037566;28;20452;-78
2022/11/22 11:16:54;;;;;;;3.20;1.00;;;;;;;6.03;86.20;99237.47;5036185;28;20103;-78
2022/11/22 11:19:23;;;;;;;0.88;0.60;;;;;;;6.10;85.91;99230.38;5036134;28;20144;-77
2022/11/22 11:21:58;;;;;;;1.90;0.80;;;;;;;6.15;86.21;99237.06;5033137;28;20034;-78
2022/11/22 11:24:27;;;;;;;2.47;0.73;;;;;;;6.19;84.74;99230.06;5039829;28;20403;-78
2022/11/22 11:26:55;;;;;;;2.35;0.63;;;;;;;6.20;84.77;99232.59;5038690;28;20044;-78
2022/11/22 11:29:42;;;;;;;2.70;0.70;;;;;;;6.20;84.48;99229.19;5035680;28;20033;-78
2022/11/22 11:32:18;;;;;;;2.38;0.73;;;;;;;6.20;84.90;99224.00;5035057;28;20029;-78
2022/11/22 11:35:03;;;;;;;2.33;0.70;;;;;;;6.20;84.75;99229.19;5041636;28;20433;-79
2022/11/22 11:37:36;;;;;;;1.55;0.80;;;;;;;6.18;84.00;99225.78;5041434;28;20033;-78
2022/11/22 11:40:25;;;;;;;1.40;0.63;;;;;;;6.17;84.57;99224.94;5039524;28;20029;-78
2022/11/22 11:43:16;;;;;;;0.73;0.50;;;;;;;6.17;84.61;99217.19;5037349;28;20494;-79
2022/11/22 11:45:41;;;;;;;1.55;0.60;;;;;;;6.21;84.21;99223.94;5040731;28;20029;-79
2022/11/22 11:48:36;;;;;;;1.30;0.57;;;;;;;6.23;84.95;99219.56;5034648;28;20566;-79
2022/11/22 11:51:26;;;;;;;1.10;0.57;;;;;;;6.26;84.29;99217.78;5039596;28;20017;-78
2022/11/22 11:54:03;;;;;;;3.03;0.60;;;;;;;6.28;83.75;99216.00;5038213;28;20035;-78
2022/11/22 11:56:38;;;;;;;1.77;0.52;;;;;;;6.27;83.72;99215.13;5033933;28;20395;-77